sensor_id;sensor_type;location;lat;lon;timestamp;pressure;altitude;pressure_sealevel;temperature;humidity
81484;BME280;70895;52.392;5.268;2023-06-22T00:01:16;102113.44;;;17.78;76.79
81484;BME280;70895;52.392;5.268;2023-06-22T00:03:42;102119.56;;;17.83;76.62
81484;BME280;70895;52.392;5.268;2023-06-22T00:06:09;102114.34;;;17.82;76.52
81484;BME280;70895;52.392;5.268;2023-06-22T00:08:36;102131.03;;;17.82;76.07
81484;BME280;70895;52.392;5.268;2023-06-22T00:11:04;102129.41;;;17.81;76.21
81484;BME280;70895;52.392;5.268;2023-06-22T00:13:31;102130.09;;;17.78;76.53
81484;BME280;70895;52.392;5.268;2023-06-22T00:15:58;102125.00;;;17.80;76.61
81484;BME280;70895;52.392;5.268;2023-06-22T00:18:24;102125.47;;;17.82;76.78
81484;BME280;70895;52.392;5.268;2023-06-22T00:20:54;102135.78;;;17.81;76.85
81484;BME280;70895;52.392;5.268;2023-06-22T00:23:23;102134.06;;;17.77;76.60
81484;BME280;70895;52.392;5.268;2023-06-22T00:25:50;102132.44;;;17.76;77.27
81484;BME280;70895;52.392;5.268;2023-06-22T00:28:19;102127.97;;;17.71;77.91
81484;BME280;70895;52.392;5.268;2023-06-22T00:30:45;102135.56;;;17.74;78.13
81484;BME280;70895;52.392;5.268;2023-06-22T00:33:13;102137.56;;;17.74;77.98
81484;BME280;70895;52.392;5.268;2023-06-22T00:35:41;102144.63;;;17.71;78.03
81484;BME280;70895;52.392;5.268;2023-06-22T00:38:08;102133.53;;;17.71;79.07
81484;BME280;70895;52.392;5.268;2023-06-22T00:40:35;102138.94;;;17.67;78.39
81484;BME280;70895;52.392;5.268;2023-06-22T00:43:02;102135.50;;;17.71;78.66
81484;BME280;70895;52.392;5.268;2023-06-22T00:45:31;102130.59;;;17.67;78.79
81484;BME280;70895;52.392;5.268;2023-06-22T00:47:58;102128.91;;;17.63;79.03
81484;BME280;70895;52.392;5.268;2023-06-22T00:50:26;102126.13;;;17.63;78.66
81484;BME280;70895;52.392;5.268;2023-06-22T00:52:55;102124.50;;;17.62;78.92
81484;BME280;70895;52.392;5.268;2023-06-22T00:55:24;102122.44;;;17.59;79.42
81484;BME280;70895;52.392;5.268;2023-06-22T00:57:52;102122.69;;;17.54;79.88
81484;BME280;70895;52.392;5.268;2023-06-22T01:00:22;102117.94;;;17.54;80.60
81484;BME280;70895;52.392;5.268;2023-06-22T01:02:51;102106.31;;;17.36;80.53
81484;BME280;70895;52.392;5.268;2023-06-22T01:05:20;102113.16;;;17.39;81.71
81484;BME280;70895;52.392;5.268;2023-06-22T01:07:58;102111.53;;;17.38;81.47
81484;BME280;70895;52.392;5.268;2023-06-22T01:10:32;102106.84;;;17.26;82.46
81484;BME280;70895;52.392;5.268;2023-06-22T01:13:06;102102.34;;;17.22;82.47
81484;BME280;70895;52.392;5.268;2023-06-22T01:15:37;102104.41;;;17.25;82.66
81484;BME280;70895;52.392;5.268;2023-06-22T01:18:08;102099.84;;;17.17;83.09
81484;BME280;70895;52.392;5.268;2023-06-22T01:20:36;102103.09;;;17.06;83.43
81484;BME280;70895;52.392;5.268;2023-06-22T01:23:09;102106.94;;;17.02;84.56
81484;BME280;70895;52.392;5.268;2023-06-22T01:25:45;102111.47;;;16.94;84.90
81484;BME280;70895;52.392;5.268;2023-06-22T01:28:23;102113.41;;;17.06;83.59
81484;BME280;70895;52.392;5.268;2023-06-22T01:30:53;102103.78;;;17.03;83.48
81484;BME280;70895;52.392;5.268;2023-06-22T01:33:33;102108.69;;;16.94;84.24
81484;BME280;70895;52.392;5.268;2023-06-22T01:36:01;102106.59;;;16.91;83.70
81484;BME280;70895;52.392;5.268;2023-06-22T01:38:29;102111.13;;;16.96;84.71
81484;BME280;70895;52.392;5.268;2023-06-22T01:40:57;102100.13;;;16.99;83.04
81484;BME280;70895;52.392;5.268;2023-06-22T01:43:25;102107.06;;;17.05;83.36
81484;BME280;70895;52.392;5.268;2023-06-22T01:45:55;102103.78;;;17.03;82.93
81484;BME280;70895;52.392;5.268;2023-06-22T01:48:22;102103.47;;;16.93;84.23
81484;BME280;70895;52.392;5.268;2023-06-22T01:50:51;102111.84;;;16.80;85.68
81484;BME280;70895;52.392;5.268;2023-06-22T01:53:20;102112.63;;;16.93;84.80
81484;BME280;70895;52.392;5.268;2023-06-22T01:55:47;102110.75;;;16.97;84.26
81484;BME280;70895;52.392;5.268;2023-06-22T01:58:14;102115.16;;;16.98;83.22
81484;BME280;70895;52.392;5.268;2023-06-22T02:00:47;102105.66;;;16.99;82.88
81484;BME280;70895;52.392;5.268;2023-06-22T02:03:19;102105.44;;;16.92;83.17
81484;BME280;70895;52.392;5.268;2023-06-22T02:05:49;102105.47;;;16.80;84.84
81484;BME280;70895;52.392;5.268;2023-06-22T02:08:20;102101.22;;;16.83;85.24
81484;BME280;70895;52.392;5.268;2023-06-22T02:10:48;102092.88;;;16.70;86.90
81484;BME280;70895;52.392;5.268;2023-06-22T02:13:15;102089.66;;;16.56;87.78
81484;BME280;70895;52.392;5.268;2023-06-22T02:15:43;102087.00;;;16.47;87.68
81484;BME280;70895;52.392;5.268;2023-06-22T02:18:10;102091.88;;;16.38;87.64
81484;BME280;70895;52.392;5.268;2023-06-22T02:20:39;102094.44;;;16.31;87.81
81484;BME280;70895;52.392;5.268;2023-06-22T02:23:06;102091.53;;;16.28;88.34
81484;BME280;70895;52.392;5.268;2023-06-22T02:25:34;102087.38;;;16.21;88.28
81484;BME280;70895;52.392;5.268;2023-06-22T02:28:01;102083.69;;;16.17;88.35
81484;BME280;70895;52.392;5.268;2023-06-22T02:30:28;102078.47;;;16.16;88.22
81484;BME280;70895;52.392;5.268;2023-06-22T02:32:55;102080.22;;;16.33;86.99
81484;BME280;70895;52.392;5.268;2023-06-22T02:35:25;102080.09;;;16.29;85.91
81484;BME280;70895;52.392;5.268;2023-06-22T02:37:53;102072.81;;;16.24;86.38
81484;BME280;70895;52.392;5.268;2023-06-22T02:40:20;102095.25;;;16.32;86.73
81484;BME280;70895;52.392;5.268;2023-06-22T02:42:47;102087.81;;;16.36;87.13
81484;BME280;70895;52.392;5.268;2023-06-22T02:45:14;102086.56;;;16.45;85.72
81484;BME280;70895;52.392;5.268;2023-06-22T02:47:41;102089.78;;;16.35;85.91
81484;BME280;70895;52.392;5.268;2023-06-22T02:50:08;102092.56;;;16.23;87.22
81484;BME280;70895;52.392;5.268;2023-06-22T02:52:35;102095.13;;;16.28;87.00
81484;BME280;70895;52.392;5.268;2023-06-22T02:55:04;102094.53;;;16.35;86.27
81484;BME280;70895;52.392;5.268;2023-06-22T02:57:32;102094.88;;;16.33;85.78
81484;BME280;70895;52.392;5.268;2023-06-22T02:59:59;102059.53;;;16.06;86.72
81484;BME280;70895;52.392;5.268;2023-06-22T03:02:26;102074.66;;;16.33;86.93
81484;BME280;70895;52.392;5.268;2023-06-22T03:04:53;102079.06;;;16.21;87.18
81484;BME280;70895;52.392;5.268;2023-06-22T03:07:20;102078.25;;;16.21;87.61
81484;BME280;70895;52.392;5.268;2023-06-22T03:09:47;102078.72;;;16.11;88.69
81484;BME280;70895;52.392;5.268;2023-06-22T03:12:15;102075.84;;;16.07;89.23
81484;BME280;70895;52.392;5.268;2023-06-22T03:14:42;102079.06;;;16.21;88.48
81484;BME280;70895;52.392;5.268;2023-06-22T03:17:09;102073.41;;;16.18;87.87
81484;BME280;70895;52.392;5.268;2023-06-22T03:19:36;102068.53;;;16.15;88.40
81484;BME280;70895;52.392;5.268;2023-06-22T03:22:04;102072.47;;;16.14;87.76
81484;BME280;70895;52.392;5.268;2023-06-22T03:24:31;102067.63;;;16.11;87.30
81484;BME280;70895;52.392;5.268;2023-06-22T03:26:59;102075.69;;;16.16;87.80
81484;BME280;70895;52.392;5.268;2023-06-22T03:29:31;102066.47;;;16.24;86.66
81484;BME280;70895;52.392;5.268;2023-06-22T03:31:58;102074.09;;;16.15;86.90
81484;BME280;70895;52.392;5.268;2023-06-22T03:34:25;102075.59;;;16.12;86.84
81484;BME280;70895;52.392;5.268;2023-06-22T03:36:52;102079.97;;;16.13;87.33
81484;BME280;70895;52.392;5.268;2023-06-22T03:39:18;102085.16;;;16.27;87.06
81484;BME280;70895;52.392;5.268;2023-06-22T03:41:45;102083.56;;;16.26;86.43
81484;BME280;70895;52.392;5.268;2023-06-22T03:44:12;102073.41;;;16.18;86.97
81484;BME280;70895;52.392;5.268;2023-06-22T03:46:40;102061.16;;;16.07;87.77
81484;BME280;70895;52.392;5.268;2023-06-22T03:49:07;102061.38;;;16.02;87.78
81484;BME280;70895;52.392;5.268;2023-06-22T03:51:34;102057.09;;;15.92;88.31
81484;BME280;70895;52.392;5.268;2023-06-22T03:54:01;102054.34;;;15.92;88.49
81484;BME280;70895;52.392;5.268;2023-06-22T03:56:27;102056.28;;;15.91;88.76
81484;BME280;70895;52.392;5.268;2023-06-22T03:58:54;102052.81;;;15.94;88.47
81484;BME280;70895;52.392;5.268;2023-06-22T04:01:21;102058.16;;;16.00;87.61
81484;BME280;70895;52.392;5.268;2023-06-22T04:03:50;102065.56;;;16.08;88.00
81484;BME280;70895;52.392;5.268;2023-06-22T04:06:17;102058.63;;;16.02;86.65
81484;BME280;70895;52.392;5.268;2023-06-22T04:08:45;102072.94;;;16.16;86.29
81484;BME280;70895;52.392;5.268;2023-06-22T04:11:13;102074.53;;;16.05;87.92
81484;BME280;70895;52.392;5.268;2023-06-22T04:13:40;102073.16;;;15.99;89.01
81484;BME280;70895;52.392;5.268;2023-06-22T04:16:07;102074.78;;;16.00;88.37
81484;BME280;70895;52.392;5.268;2023-06-22T04:18:34;102067.38;;;16.04;87.77
81484;BME280;70895;52.392;5.268;2023-06-22T04:21:03;102068.53;;;16.15;86.95
81484;BME280;70895;52.392;5.268;2023-06-22T04:23:29;102061.28;;;16.22;86.90
81484;BME280;70895;52.392;5.268;2023-06-22T04:25:56;102059.31;;;16.23;86.99
81484;BME280;70895;52.392;5.268;2023-06-22T04:28:23;102054.00;;;16.18;86.96
81484;BME280;70895;52.392;5.268;2023-06-22T04:30:50;102067.28;;;16.24;87.73
81484;BME280;70895;52.392;5.268;2023-06-22T04:33:17;102062.75;;;16.32;87.61
81484;BME280;70895;52.392;5.268;2023-06-22T04:35:45;102059.09;;;16.28;87.29
81484;BME280;70895;52.392;5.268;2023-06-22T04:38:13;102066.81;;;16.35;87.74
81484;BME280;70895;52.392;5.268;2023-06-22T04:40:40;102064.25;;;16.42;87.90
81484;BME280;70895;52.392;5.268;2023-06-22T04:43:07;102058.81;;;16.45;87.26
81484;BME280;70895;52.392;5.268;2023-06-22T04:45:35;102060.06;;;16.48;87.70
81484;BME280;70895;52.392;5.268;2023-06-22T04:48:04;102059.03;;;16.52;87.31
81484;BME280;70895;52.392;5.268;2023-06-22T04:50:30;102059.72;;;16.62;87.44
81484;BME280;70895;52.392;5.268;2023-06-22T04:53:03;102053.47;;;16.65;87.09
81484;BME280;70895;52.392;5.268;2023-06-22T04:55:32;102060.88;;;16.73;88.28
81484;BME280;70895;52.392;5.268;2023-06-22T04:57:59;102054.19;;;16.74;88.58
81484;BME280;70895;52.392;5.268;2023-06-22T05:00:30;102055.44;;;16.76;87.97
81484;BME280;70895;52.392;5.268;2023-06-22T05:02:57;102057.25;;;16.85;87.35
81484;BME280;70895;52.392;5.268;2023-06-22T05:05:24;102063.34;;;16.90;87.54
81484;BME280;70895;52.392;5.268;2023-06-22T05:07:51;102065.19;;;16.98;87.25
81484;BME280;70895;52.392;5.268;2023-06-22T05:10:20;102061.09;;;17.08;86.35
81484;BME280;70895;52.392;5.268;2023-06-22T05:12:48;102064.44;;;17.14;85.77
81484;BME280;70895;52.392;5.268;2023-06-22T05:15:15;102056.31;;;17.21;86.11
81484;BME280;70895;52.392;5.268;2023-06-22T05:17:45;102063.41;;;17.34;85.78
81484;BME280;70895;52.392;5.268;2023-06-22T05:20:12;102063.34;;;17.46;84.71
81484;BME280;70895;52.392;5.268;2023-06-22T05:22:40;102049.72;;;17.57;84.18
81484;BME280;70895;52.392;5.268;2023-06-22T05:25:10;102062.13;;;17.59;84.68
81484;BME280;70895;52.392;5.268;2023-06-22T05:27:37;102065.72;;;17.60;84.68
81484;BME280;70895;52.392;5.268;2023-06-22T05:30:08;102065.28;;;17.74;84.88
81484;BME280;70895;52.392;5.268;2023-06-22T05:32:37;102051.31;;;17.70;84.44
81484;BME280;70895;52.392;5.268;2023-06-22T05:35:04;102048.97;;;17.72;84.70
81484;BME280;70895;52.392;5.268;2023-06-22T05:37:31;102050.22;;;17.75;84.33
81484;BME280;70895;52.392;5.268;2023-06-22T05:39:58;102056.69;;;17.79;84.80
81484;BME280;70895;52.392;5.268;2023-06-22T05:42:25;102056.44;;;17.84;83.96
81484;BME280;70895;52.392;5.268;2023-06-22T05:44:52;102061.09;;;17.95;83.89
81484;BME280;70895;52.392;5.268;2023-06-22T05:47:20;102063.84;;;18.11;83.39
81484;BME280;70895;52.392;5.268;2023-06-22T05:49:48;102068.66;;;18.30;83.49
81484;BME280;70895;52.392;5.268;2023-06-22T05:52:15;102063.66;;;18.36;82.71
81484;BME280;70895;52.392;5.268;2023-06-22T05:54:41;102066.19;;;18.44;82.23
81484;BME280;70895;52.392;5.268;2023-06-22T05:57:08;102071.81;;;18.64;82.39
81484;BME280;70895;52.392;5.268;2023-06-22T05:59:35;102073.41;;;18.80;81.40
81484;BME280;70895;52.392;5.268;2023-06-22T06:02:02;102077.34;;;18.99;81.62
81484;BME280;70895;52.392;5.268;2023-06-22T06:04:30;102071.00;;;19.18;80.30
81484;BME280;70895;52.392;5.268;2023-06-22T06:06:57;102072.63;;;19.41;79.11
81484;BME280;70895;52.392;5.268;2023-06-22T06:09:23;102073.38;;;19.58;78.68
81484;BME280;70895;52.392;5.268;2023-06-22T06:11:53;102082.25;;;19.86;78.70
81484;BME280;70895;52.392;5.268;2023-06-22T06:14:19;102074.44;;;19.95;77.13
81484;BME280;70895;52.392;5.268;2023-06-22T06:16:46;102081.63;;;19.96;76.92
81484;BME280;70895;52.392;5.268;2023-06-22T06:19:13;102081.44;;;20.09;77.06
81484;BME280;70895;52.392;5.268;2023-06-22T06:21:41;102083.44;;;20.08;76.14
81484;BME280;70895;52.392;5.268;2023-06-22T06:24:09;102080.91;;;20.26;76.22
81484;BME280;70895;52.392;5.268;2023-06-22T06:26:38;102084.66;;;20.11;76.00
81484;BME280;70895;52.392;5.268;2023-06-22T06:29:05;102078.03;;;20.19;75.99
81484;BME280;70895;52.392;5.268;2023-06-22T06:31:32;102074.94;;;20.27;75.21
81484;BME280;70895;52.392;5.268;2023-06-22T06:33:59;102069.88;;;20.33;74.67
81484;BME280;70895;52.392;5.268;2023-06-22T06:36:25;102070.06;;;20.44;74.26
81484;BME280;70895;52.392;5.268;2023-06-22T06:38:54;102071.94;;;20.63;73.68
81484;BME280;70895;52.392;5.268;2023-06-22T06:41:20;102061.19;;;20.65;72.49
81484;BME280;70895;52.392;5.268;2023-06-22T06:43:47;102066.19;;;20.82;72.22
81484;BME280;70895;52.392;5.268;2023-06-22T06:46:14;102053.34;;;21.07;71.76
81484;BME280;70895;52.392;5.268;2023-06-22T06:48:43;102053.38;;;21.11;71.17
81484;BME280;70895;52.392;5.268;2023-06-22T06:51:09;102058.16;;;21.10;70.77
81484;BME280;70895;52.392;5.268;2023-06-22T06:53:37;102053.63;;;21.29;70.63
81484;BME280;70895;52.392;5.268;2023-06-22T06:56:06;102058.41;;;21.28;70.21
81484;BME280;70895;52.392;5.268;2023-06-22T06:58:35;102054.16;;;21.45;69.27
81484;BME280;70895;52.392;5.268;2023-06-22T07:01:02;102053.06;;;21.53;69.70
81484;BME280;70895;52.392;5.268;2023-06-22T07:03:29;102060.44;;;21.72;68.64
81484;BME280;70895;52.392;5.268;2023-06-22T07:05:55;102052.50;;;21.81;68.51
81484;BME280;70895;52.392;5.268;2023-06-22T07:08:22;102054.78;;;22.13;67.47
81484;BME280;70895;52.392;5.268;2023-06-22T07:10:49;102053.06;;;22.01;66.71
81484;BME280;70895;52.392;5.268;2023-06-22T07:13:17;102043.13;;;22.04;65.94
81484;BME280;70895;52.392;5.268;2023-06-22T07:15:44;102044.91;;;22.30;66.13
81484;BME280;70895;52.392;5.268;2023-06-22T07:18:11;102044.19;;;22.40;65.54
81484;BME280;70895;52.392;5.268;2023-06-22T07:20:38;102042.75;;;22.71;64.10
81484;BME280;70895;52.392;5.268;2023-06-22T07:23:06;102047.66;;;22.88;63.78
81484;BME280;70895;52.392;5.268;2023-06-22T07:25:32;102044.53;;;23.18;63.33
81484;BME280;70895;52.392;5.268;2023-06-22T07:28:01;102039.41;;;23.49;62.63
81484;BME280;70895;52.392;5.268;2023-06-22T07:30:29;102034.22;;;23.65;62.12
81484;BME280;70895;52.392;5.268;2023-06-22T07:32:57;102041.44;;;23.87;60.93
81484;BME280;70895;52.392;5.268;2023-06-22T07:35:29;102035.84;;;24.02;60.18
81484;BME280;70895;52.392;5.268;2023-06-22T07:37:55;102039.81;;;24.47;58.94
81484;BME280;70895;52.392;5.268;2023-06-22T07:40:22;102039.81;;;24.47;57.75
81484;BME280;70895;52.392;5.268;2023-06-22T07:42:49;102031.31;;;24.68;57.34
81484;BME280;70895;52.392;5.268;2023-06-22T07:45:17;102028.63;;;25.31;55.77
81484;BME280;70895;52.392;5.268;2023-06-22T07:47:45;102032.88;;;25.53;54.51
81484;BME280;70895;52.392;5.268;2023-06-22T07:50:12;102028.84;;;25.54;54.33
81484;BME280;70895;52.392;5.268;2023-06-22T07:52:38;102020.41;;;26.06;52.35
81484;BME280;70895;52.392;5.268;2023-06-22T07:55:05;102019.00;;;26.59;50.75
81484;BME280;70895;52.392;5.268;2023-06-22T07:57:32;102018.19;;;27.23;49.34
81484;BME280;70895;52.392;5.268;2023-06-22T07:59:59;102025.81;;;28.00;47.75
81484;BME280;70895;52.392;5.268;2023-06-22T08:02:29;102015.94;;;27.88;47.08
81484;BME280;70895;52.392;5.268;2023-06-22T08:04:57;102020.06;;;28.50;45.12
81484;BME280;70895;52.392;5.268;2023-06-22T08:07:23;102031.63;;;29.15;43.52
81484;BME280;70895;52.392;5.268;2023-06-22T08:09:50;102021.38;;;28.66;44.29
81484;BME280;70895;52.392;5.268;2023-06-22T08:12:17;102011.63;;;28.86;44.27
81484;BME280;70895;52.392;5.268;2023-06-22T08:14:43;102022.81;;;29.46;42.98
81484;BME280;70895;52.392;5.268;2023-06-22T08:17:11;102019.66;;;29.08;43.19
81484;BME280;70895;52.392;5.268;2023-06-22T08:19:42;102022.53;;;29.24;43.46
81484;BME280;70895;52.392;5.268;2023-06-22T08:22:09;102021.13;;;29.32;43.40
81484;BME280;70895;52.392;5.268;2023-06-22T08:24:36;102017.56;;;29.28;42.41
81484;BME280;70895;52.392;5.268;2023-06-22T08:27:03;102013.28;;;29.72;42.09
81484;BME280;70895;52.392;5.268;2023-06-22T08:29:33;102010.09;;;29.87;41.97
81484;BME280;70895;52.392;5.268;2023-06-22T08:32:00;102007.16;;;29.74;41.99
81484;BME280;70895;52.392;5.268;2023-06-22T08:34:27;101998.66;;;30.07;41.94
81484;BME280;70895;52.392;5.268;2023-06-22T08:36:54;101985.91;;;30.56;41.07
81484;BME280;70895;52.392;5.268;2023-06-22T08:39:22;101985.41;;;30.33;40.93
81484;BME280;70895;52.392;5.268;2023-06-22T08:41:48;101982.06;;;30.05;40.50
81484;BME280;70895;52.392;5.268;2023-06-22T08:44:18;101981.78;;;29.70;42.21
81484;BME280;70895;52.392;5.268;2023-06-22T08:46:45;101977.03;;;30.42;40.71
81484;BME280;70895;52.392;5.268;2023-06-22T08:49:12;101969.53;;;30.64;39.45
81484;BME280;70895;52.392;5.268;2023-06-22T08:51:38;101973.88;;;29.94;40.19
81484;BME280;70895;52.392;5.268;2023-06-22T08:54:05;101978.03;;;30.35;39.32
81484;BME280;70895;52.392;5.268;2023-06-22T08:56:33;101982.88;;;30.06;40.16
81484;BME280;70895;52.392;5.268;2023-06-22T08:58:59;101972.53;;;29.99;40.79
81484;BME280;70895;52.392;5.268;2023-06-22T09:01:27;101977.69;;;29.88;40.44
81484;BME280;70895;52.392;5.268;2023-06-22T09:03:53;101959.31;;;29.80;41.33
81484;BME280;70895;52.392;5.268;2023-06-22T09:06:23;101953.03;;;30.17;41.10
81484;BME280;70895;52.392;5.268;2023-06-22T09:08:49;101954.81;;;29.95;40.70
81484;BME280;70895;52.392;5.268;2023-06-22T09:11:16;101958.22;;;29.73;41.23
81484;BME280;70895;52.392;5.268;2023-06-22T09:13:44;101950.28;;;29.52;41.89
81484;BME280;70895;52.392;5.268;2023-06-22T09:16:11;101950.41;;;30.10;41.42
81484;BME280;70895;52.392;5.268;2023-06-22T09:18:38;101953.09;;;30.43;39.11
81484;BME280;70895;52.392;5.268;2023-06-22T09:21:04;101949.63;;;30.51;39.71
81484;BME280;70895;52.392;5.268;2023-06-22T09:23:31;101950.19;;;30.17;40.99
81484;BME280;70895;52.392;5.268;2023-06-22T09:25:57;101951.59;;;30.93;38.86
81484;BME280;70895;52.392;5.268;2023-06-22T09:28:24;101939.97;;;30.07;40.67
81484;BME280;70895;52.392;5.268;2023-06-22T09:30:52;101952.28;;;30.29;39.87
81484;BME280;70895;52.392;5.268;2023-06-22T09:33:24;101938.19;;;29.97;40.42
81484;BME280;70895;52.392;5.268;2023-06-22T09:35:51;101952.59;;;29.57;40.99
81484;BME280;70895;52.392;5.268;2023-06-22T09:38:17;101953.19;;;29.16;42.00
81484;BME280;70895;52.392;5.268;2023-06-22T09:40:46;101941.91;;;28.80;42.03
81484;BME280;70895;52.392;5.268;2023-06-22T09:43:13;101944.47;;;29.43;41.70
81484;BME280;70895;52.392;5.268;2023-06-22T09:45:40;101956.34;;;29.54;41.55
81484;BME280;70895;52.392;5.268;2023-06-22T09:48:08;101951.06;;;29.04;42.00
81484;BME280;70895;52.392;5.268;2023-06-22T09:50:35;101949.38;;;28.70;43.38
81484;BME280;70895;52.392;5.268;2023-06-22T09:53:01;101942.53;;;27.88;45.59
81484;BME280;70895;52.392;5.268;2023-06-22T09:55:28;101939.34;;;27.63;45.63
81484;BME280;70895;52.392;5.268;2023-06-22T09:57:55;101941.59;;;26.71;48.49
81484;BME280;70895;52.392;5.268;2023-06-22T10:00:21;101948.16;;;26.61;48.32
81484;BME280;70895;52.392;5.268;2023-06-22T10:02:48;101940.00;;;26.39;48.21
81484;BME280;70895;52.392;5.268;2023-06-22T10:05:17;101938.16;;;26.56;48.74
81484;BME280;70895;52.392;5.268;2023-06-22T10:07:43;101936.31;;;27.00;48.16
81484;BME280;70895;52.392;5.268;2023-06-22T10:10:10;101937.13;;;27.04;49.58
81484;BME280;70895;52.392;5.268;2023-06-22T10:12:41;101929.09;;;27.26;49.78
81484;BME280;70895;52.392;5.268;2023-06-22T10:15:09;101937.50;;;26.75;50.37
81484;BME280;70895;52.392;5.268;2023-06-22T10:17:35;101926.44;;;26.57;51.12
81484;BME280;70895;52.392;5.268;2023-06-22T10:20:03;101930.03;;;26.27;52.89
81484;BME280;70895;52.392;5.268;2023-06-22T10:22:38;101925.41;;;26.10;53.28
81484;BME280;70895;52.392;5.268;2023-06-22T10:25:05;101923.09;;;26.01;53.12
81484;BME280;70895;52.392;5.268;2023-06-22T10:27:32;101916.34;;;25.95;54.09
81484;BME280;70895;52.392;5.268;2023-06-22T10:29:59;101922.94;;;25.78;53.79
81484;BME280;70895;52.392;5.268;2023-06-22T10:32:26;101917.72;;;25.77;53.64
81484;BME280;70895;52.392;5.268;2023-06-22T10:34:53;101920.84;;;25.41;55.33
81484;BME280;70895;52.392;5.268;2023-06-22T10:37:20;101916.28;;;25.06;55.92
81484;BME280;70895;52.392;5.268;2023-06-22T10:39:48;101906.44;;;24.76;56.33
81484;BME280;70895;52.392;5.268;2023-06-22T10:42:15;101911.69;;;24.71;56.95
81484;BME280;70895;52.392;5.268;2023-06-22T10:44:42;101913.81;;;24.42;57.89
81484;BME280;70895;52.392;5.268;2023-06-22T10:47:09;101920.28;;;24.24;59.03
81484;BME280;70895;52.392;5.268;2023-06-22T10:49:37;101927.13;;;24.20;59.36
81484;BME280;70895;52.392;5.268;2023-06-22T10:52:05;101927.91;;;24.35;58.71
81484;BME280;70895;52.392;5.268;2023-06-22T10:54:32;101933.03;;;24.50;58.36
81484;BME280;70895;52.392;5.268;2023-06-22T10:57:01;101933.47;;;24.45;58.49
81484;BME280;70895;52.392;5.268;2023-06-22T10:59:28;101932.31;;;24.43;59.14
81484;BME280;70895;52.392;5.268;2023-06-22T11:01:55;101935.41;;;24.59;58.77
81484;BME280;70895;52.392;5.268;2023-06-22T11:04:22;101932.31;;;24.28;59.70
81484;BME280;70895;52.392;5.268;2023-06-22T11:06:48;101931.13;;;24.26;60.32
81484;BME280;70895;52.392;5.268;2023-06-22T11:09:15;101927.56;;;24.11;60.71
81484;BME280;70895;52.392;5.268;2023-06-22T11:11:46;101928.81;;;23.99;61.12
81484;BME280;70895;52.392;5.268;2023-06-22T11:14:14;101924.00;;;24.00;61.47
81484;BME280;70895;52.392;5.268;2023-06-22T11:16:40;101932.41;;;24.00;61.67
81484;BME280;70895;52.392;5.268;2023-06-22T11:19:07;101926.78;;;24.00;62.28
81484;BME280;70895;52.392;5.268;2023-06-22T11:21:34;101930.78;;;24.06;62.12
81484;BME280;70895;52.392;5.268;2023-06-22T11:24:00;101926.41;;;23.77;62.86
81484;BME280;70895;52.392;5.268;2023-06-22T11:26:27;101931.66;;;23.78;62.89
81484;BME280;70895;52.392;5.268;2023-06-22T11:28:54;101928.81;;;23.85;62.64
81484;BME280;70895;52.392;5.268;2023-06-22T11:31:22;101932.44;;;23.82;63.33
81484;BME280;70895;52.392;5.268;2023-06-22T11:33:49;101930.00;;;24.02;62.56
81484;BME280;70895;52.392;5.268;2023-06-22T11:36:16;101928.00;;;23.95;62.72
81484;BME280;70895;52.392;5.268;2023-06-22T11:38:43;101920.38;;;23.92;63.44
81484;BME280;70895;52.392;5.268;2023-06-22T11:41:10;101919.56;;;24.10;62.45
81484;BME280;70895;52.392;5.268;2023-06-22T11:43:37;101923.53;;;24.09;62.26
81484;BME280;70895;52.392;5.268;2023-06-22T11:46:04;101923.16;;;24.07;62.93
81484;BME280;70895;52.392;5.268;2023-06-22T11:48:32;101913.16;;;23.88;63.86
81484;BME280;70895;52.392;5.268;2023-06-22T11:50:59;101909.22;;;23.78;64.39
81484;BME280;70895;52.392;5.268;2023-06-22T11:53:26;101906.75;;;24.02;63.89
81484;BME280;70895;52.392;5.268;2023-06-22T11:55:53;101901.00;;;24.30;63.00
81484;BME280;70895;52.392;5.268;2023-06-22T11:58:20;101900.19;;;24.40;58.02
81484;BME280;70895;52.392;5.268;2023-06-22T12:00:47;101895.31;;;24.51;57.49
81484;BME280;70895;52.392;5.268;2023-06-22T12:03:14;101891.75;;;24.47;54.69
81484;BME280;70895;52.392;5.268;2023-06-22T12:05:43;101892.06;;;24.60;52.33
81484;BME280;70895;52.392;5.268;2023-06-22T12:08:10;101889.13;;;24.81;51.38
81484;BME280;70895;52.392;5.268;2023-06-22T12:10:37;101889.50;;;24.83;50.49
81484;BME280;70895;52.392;5.268;2023-06-22T12:13:03;101887.13;;;24.82;50.89
81484;BME280;70895;52.392;5.268;2023-06-22T12:15:30;101875.06;;;24.81;50.60
81484;BME280;70895;52.392;5.268;2023-06-22T12:17:57;101879.41;;;24.93;50.66
81484;BME280;70895;52.392;5.268;2023-06-22T12:20:23;101869.00;;;24.90;49.89
81484;BME280;70895;52.392;5.268;2023-06-22T12:22:51;101868.66;;;24.81;47.85
81484;BME280;70895;52.392;5.268;2023-06-22T12:25:19;101856.22;;;24.82;48.16
81484;BME280;70895;52.392;5.268;2023-06-22T12:27:46;101860.75;;;24.62;49.52
81484;BME280;70895;52.392;5.268;2023-06-22T12:30:12;101862.41;;;24.55;49.51
81484;BME280;70895;52.392;5.268;2023-06-22T12:32:39;101857.56;;;24.60;50.59
81484;BME280;70895;52.392;5.268;2023-06-22T12:35:07;101854.69;;;24.70;51.19
81484;BME280;70895;52.392;5.268;2023-06-22T12:37:38;101863.06;;;24.74;51.17
81484;BME280;70895;52.392;5.268;2023-06-22T12:40:08;101863.56;;;24.62;51.85
81484;BME280;70895;52.392;5.268;2023-06-22T12:42:35;101862.09;;;24.43;53.02
81484;BME280;70895;52.392;5.268;2023-06-22T12:45:01;101860.47;;;24.42;54.85
81484;BME280;70895;52.392;5.268;2023-06-22T12:47:30;101853.31;;;24.26;55.24
81484;BME280;70895;52.392;5.268;2023-06-22T12:49:57;101857.03;;;24.02;56.41
81484;BME280;70895;52.392;5.268;2023-06-22T12:52:24;101853.09;;;23.78;58.87